Time;durP1;ratioP1;P1;durP2;ratioP2;P2;SDS_P1;SDS_P2;PMS_P1;PMS_P2;Temp;Humidity;BMP_temperature;BMP_pressure;BME280_temperature;BME280_humidity;BME280_pressure;Samples;Min_cycle;Max_cycle;Signal;HPM_P1;HPM_P2
2023/07/14 00:00:18;;;;;;;4.37;1.27;;;16.00;99.90;;;;;;5045589;28;20946;-80
2023/07/14 00:02:47;;;;;;;2.97;1.27;;;15.90;99.90;;;;;;5046060;28;20475;-80
2023/07/14 00:05:20;;;;;;;1.00;1.00;;;15.90;99.90;;;;;;5040916;28;20566;-80
2023/07/14 00:07:50;;;;;;;1.37;1.30;;;15.80;99.90;;;;;;5044817;28;20478;-83
2023/07/14 00:10:20;;;;;;;8.80;1.60;;;15.60;99.90;;;;;;5054130;27;20556;-83
2023/07/14 00:12:48;;;;;;;3.73;1.20;;;15.40;99.90;;;;;;5045303;28;20477;-82
2023/07/14 00:15:16;;;;;;;1.30;1.20;;;15.40;99.90;;;;;;5043284;28;20505;-81
2023/07/14 00:17:43;;;;;;;1.30;1.20;;;15.30;99.90;;;;;;5042671;28;20977;-80
2023/07/14 00:20:23;;;;;;;2.00;1.80;;;15.20;99.90;;;;;;5042679;28;20905;-82
2023/07/14 00:22:53;;;;;;;1.43;1.33;;;15.20;99.90;;;;;;5042325;28;20536;-79
2023/07/14 00:25:22;;;;;;;1.50;1.00;;;15.20;99.90;;;;;;5040861;27;20510;-80
2023/07/14 00:27:49;;;;;;;1.00;0.90;;;15.10;99.90;;;;;;5043269;28;20487;-80
2023/07/14 00:30:19;;;;;;;1.87;1.30;;;15.10;99.90;;;;;;5044121;28;20489;-80
2023/07/14 00:32:47;;;;;;;4.60;1.60;;;15.10;99.90;;;;;;5040337;28;20468;-81
2023/07/14 00:35:24;;;;;;;2.60;1.70;;;15.10;99.90;;;;;;5043371;28;20969;-80
2023/07/14 00:37:54;;;;;;;1.30;1.20;;;15.10;99.90;;;;;;5042936;28;20809;-81
2023/07/14 00:40:24;;;;;;;1.63;1.17;;;15.10;99.90;;;;;;5060024;27;20501;-82
2023/07/14 00:42:55;;;;;;;2.07;1.00;;;15.00;99.90;;;;;;5048934;27;20859;-80
2023/07/14 00:45:26;;;;;;;1.33;1.23;;;15.00;99.90;;;;;;5042299;28;20575;-79
2023/07/14 00:47:57;;;;;;;3.00;1.20;;;14.90;99.90;;;;;;5040972;28;20467;-79
2023/07/14 00:50:32;;;;;;;3.70;1.73;;;14.90;99.90;;;;;;5040709;28;20461;-79
2023/07/14 00:53:05;;;;;;;1.70;1.50;;;14.80;99.90;;;;;;5042415;27;20474;-81
2023/07/14 00:55:39;;;;;;;1.30;1.20;;;14.80;99.90;;;;;;5035416;28;20508;-80
2023/07/14 00:58:15;;;;;;;1.73;1.23;;;14.80;99.90;;;;;;5035410;28;21027;-79
2023/07/14 01:01:04;;;;;;;3.23;1.43;;;14.80;99.90;;;;;;5040970;28;20531;-79
2023/07/14 01:03:32;;;;;;;3.77;1.50;;;14.90;99.90;;;;;;5040855;28;20491;-80
2023/07/14 01:06:02;;;;;;;2.10;1.50;;;14.80;99.90;;;;;;5048157;27;20485;-80
2023/07/14 01:08:31;;;;;;;2.07;1.33;;;14.80;99.90;;;;;;5076331;27;20461;-80
2023/07/14 01:10:59;;;;;;;3.10;1.70;;;14.80;99.90;;;;;;5043961;28;20474;-80
2023/07/14 01:13:27;;;;;;;2.23;1.07;;;14.80;99.90;;;;;;5043218;28;20470;-80
2023/07/14 01:15:54;;;;;;;3.23;2.77;;;14.70;99.90;;;;;;5040957;28;20537;-80
2023/07/14 01:18:21;;;;;;;3.00;1.40;;;14.70;99.90;;;;;;5043847;28;20562;-80
2023/07/14 01:20:48;;;;;;;2.10;1.77;;;14.60;99.90;;;;;;5041815;28;20461;-81
2023/07/14 01:23:39;;;;;;;2.80;2.60;;;14.60;99.90;;;;;;5042776;28;20554;-80
2023/07/14 01:26:15;;;;;;;3.00;2.37;;;14.50;99.90;;;;;;5041681;27;20509;-83
2023/07/14 01:28:44;;;;;;;2.13;1.57;;;14.50;99.90;;;;;;5041627;28;20496;-82
2023/07/14 01:31:12;;;;;;;1.67;1.43;;;14.50;99.90;;;;;;5047044;27;20493;-80
2023/07/14 01:33:39;;;;;;;2.50;1.30;;;14.50;99.90;;;;;;5038753;28;20981;-80
2023/07/14 01:36:07;;;;;;;1.87;1.27;;;14.60;99.90;;;;;;5041537;28;20501;-80
2023/07/14 01:38:34;;;;;;;4.67;1.80;;;14.70;99.90;;;;;;5041197;28;20631;-80
2023/07/14 01:41:03;;;;;;;1.50;1.40;;;14.80;99.90;;;;;;5069085;27;20489;-81
2023/07/14 01:43:31;;;;;;;1.73;1.63;;;14.70;99.90;;;;;;5052559;27;20501;-83
2023/07/14 01:46:02;;;;;;;3.50;1.90;;;14.70;99.90;;;;;;5053234;27;20514;-84
2023/07/14 01:48:32;;;;;;;4.73;1.70;;;14.90;99.90;;;;;;5045842;27;20481;-84
2023/07/14 01:51:03;;;;;;;2.20;1.40;;;14.90;99.90;;;;;;5040574;28;20541;-81
2023/07/14 01:53:36;;;;;;;2.90;1.40;;;14.90;99.90;;;;;;5043913;28;20461;-79
2023/07/14 01:56:07;;;;;;;1.50;1.27;;;14.80;99.90;;;;;;5040203;28;20478;-79
2023/07/14 01:58:37;;;;;;;1.23;1.07;;;14.60;99.90;;;;;;5041206;28;20489;-81
2023/07/14 02:01:07;;;;;;;1.83;1.00;;;14.70;99.90;;;;;;5061653;27;20918;-80
2023/07/14 02:03:37;;;;;;;3.40;1.83;;;14.70;99.90;;;;;;5044168;28;20506;-82
2023/07/14 02:06:05;;;;;;;2.17;1.47;;;14.70;99.90;;;;;;5041643;28;20494;-82
2023/07/14 02:08:32;;;;;;;0.80;0.80;;;14.70;99.90;;;;;;5043746;28;20469;-82
2023/07/14 02:10:59;;;;;;;1.57;1.47;;;14.60;99.90;;;;;;5043759;28;20445;-80
2023/07/14 02:13:27;;;;;;;1.17;0.93;;;14.60;99.90;;;;;;5037470;27;20490;-79
2023/07/14 02:15:55;;;;;;;1.47;1.30;;;14.50;99.90;;;;;;5042504;28;20862;-81
2023/07/14 02:18:28;;;;;;;1.97;1.30;;;14.50;99.90;;;;;;5040404;28;20512;-82
2023/07/14 02:20:56;;;;;;;1.53;1.43;;;14.50;99.90;;;;;;5040028;28;20882;-81
2023/07/14 02:23:26;;;;;;;2.70;2.00;;;14.40;99.90;;;;;;5043197;28;20470;-79
2023/07/14 02:26:05;;;;;;;2.03;1.37;;;14.40;99.90;;;;;;5036597;28;21220;-81
2023/07/14 02:28:32;;;;;;;9.67;2.50;;;14.50;99.90;;;;;;5041378;28;21147;-80
2023/07/14 02:31:05;;;;;;;1.83;1.47;;;14.50;99.90;;;;;;5042252;28;20449;-80
2023/07/14 02:33:37;;;;;;;1.53;1.40;;;14.40;99.90;;;;;;5039156;28;20489;-80
2023/07/14 02:36:12;;;;;;;1.23;1.10;;;14.40;99.90;;;;;;5040842;28;20477;-80
2023/07/14 02:38:40;;;;;;;2.00;1.20;;;14.30;99.90;;;;;;5060382;27;20510;-80
2023/07/14 02:41:14;;;;;;;1.40;1.30;;;14.20;99.90;;;;;;5036137;27;20524;-80
2023/07/14 02:43:42;;;;;;;1.43;1.33;;;14.20;99.90;;;;;;5048649;28;20472;-80
2023/07/14 02:46:17;;;;;;;0.90;0.90;;;14.10;99.90;;;;;;5038962;28;20554;-80
2023/07/14 02:48:49;;;;;;;1.20;1.10;;;14.00;99.90;;;;;;5039480;28;20546;-81
2023/07/14 02:51:16;;;;;;;1.90;1.30;;;14.00;99.90;;;;;;5044777;28;20516;-81
2023/07/14 02:53:43;;;;;;;1.40;1.13;;;14.00;99.90;;;;;;5033472;28;20961;-80
2023/07/14 02:56:10;;;;;;;3.40;1.27;;;13.90;99.90;;;;;;5037598;28;20482;-80
2023/07/14 02:58:37;;;;;;;5.37;1.80;;;13.90;99.90;;;;;;5037749;28;20485;-80
2023/07/14 03:01:06;;;;;;;3.07;1.50;;;13.80;99.90;;;;;;5054507;28;20457;-79
2023/07/14 03:03:34;;;;;;;1.10;1.03;;;13.70;99.90;;;;;;5051046;28;20493;-82
2023/07/14 03:06:02;;;;;;;1.30;1.20;;;13.80;99.90;;;;;;5041348;28;20509;-81
2023/07/14 03:08:29;;;;;;;2.10;1.17;;;13.80;99.90;;;;;;5038835;28;20461;-81
2023/07/14 03:10:58;;;;;;;2.90;1.20;;;13.80;99.90;;;;;;5041161;28;20549;-81
2023/07/14 03:13:26;;;;;;;1.87;1.27;;;13.80;99.90;;;;;;5039223;28;20502;-80
2023/07/14 03:15:53;;;;;;;2.90;1.37;;;13.80;99.90;;;;;;5041668;28;20500;-80
2023/07/14 03:18:20;;;;;;;1.50;1.40;;;13.80;99.90;;;;;;5037294;28;20533;-81
2023/07/14 03:20:47;;;;;;;1.43;1.33;;;13.80;99.90;;;;;;5039121;28;20520;-81
2023/07/14 03:23:15;;;;;;;3.10;1.97;;;13.80;99.90;;;;;;5042094;28;20461;-79
2023/07/14 03:25:42;;;;;;;3.20;1.90;;;13.80;99.90;;;;;;5046338;27;20453;-80
2023/07/14 03:28:09;;;;;;;1.17;1.07;;;13.80;99.90;;;;;;5063627;27;20496;-81
2023/07/14 03:30:40;;;;;;;1.40;1.30;;;13.90;99.90;;;;;;5049278;27;21409;-80
2023/07/14 03:33:08;;;;;;;1.77;1.43;;;13.90;99.90;;;;;;5040276;28;20461;-84
2023/07/14 03:35:35;;;;;;;2.20;1.13;;;13.80;99.90;;;;;;5032320;28;20488;-81
2023/07/14 03:38:02;;;;;;;1.40;1.30;;;13.90;99.90;;;;;;5069448;27;20475;-79
2023/07/14 03:40:30;;;;;;;1.20;1.10;;;13.90;99.90;;;;;;5051463;27;21071;-80
2023/07/14 03:42:57;;;;;;;3.70;1.70;;;13.80;99.90;;;;;;5051992;27;20489;-79
2023/07/14 03:45:24;;;;;;;1.43;1.20;;;13.80;99.90;;;;;;5038771;28;20856;-80
2023/07/14 03:47:51;;;;;;;1.10;0.90;;;13.90;99.90;;;;;;5044431;28;20565;-80
2023/07/14 03:50:18;;;;;;;1.00;1.00;;;13.90;99.90;;;;;;5043509;28;21033;-80
2023/07/14 03:52:45;;;;;;;5.03;1.23;;;13.90;99.90;;;;;;5040005;28;20501;-81
2023/07/14 03:55:12;;;;;;;1.47;1.37;;;13.90;99.90;;;;;;5042276;28;20565;-80
2023/07/14 03:57:41;;;;;;;1.77;1.33;;;14.10;99.90;;;;;;5043774;28;20457;-82
2023/07/14 04:00:17;;;;;;;3.53;1.20;;;14.10;99.90;;;;;;5036506;28;20489;-82
2023/07/14 04:02:45;;;;;;;3.13;1.60;;;14.20;99.90;;;;;;5042431;28;20461;-80
2023/07/14 04:05:13;;;;;;;2.00;1.67;;;14.20;99.90;;;;;;5044275;28;20952;-79
2023/07/14 04:07:42;;;;;;;2.43;1.80;;;14.20;99.90;;;;;;5042580;28;21025;-84
2023/07/14 04:10:10;;;;;;;3.67;1.93;;;14.20;99.90;;;;;;5040925;28;20497;-82
2023/07/14 04:12:37;;;;;;;2.90;1.67;;;14.20;99.90;;;;;;5045825;27;20916;-83
2023/07/14 04:15:07;;;;;;;5.67;1.73;;;14.30;99.90;;;;;;5039927;28;20504;-80
2023/07/14 04:17:36;;;;;;;2.93;1.10;;;14.50;99.90;;;;;;5038445;28;20533;-82
2023/07/14 04:20:05;;;;;;;1.90;1.50;;;14.50;99.90;;;;;;5041481;28;20941;-79
2023/07/14 04:22:31;;;;;;;2.27;1.30;;;14.60;99.90;;;;;;5040415;28;20458;-84
2023/07/14 04:24:59;;;;;;;1.73;1.63;;;14.60;99.90;;;;;;5041975;28;20499;-80
2023/07/14 04:27:26;;;;;;;1.47;1.30;;;14.70;99.90;;;;;;5043708;28;20484;-80
2023/07/14 04:29:53;;;;;;;1.67;1.23;;;14.80;99.90;;;;;;5066575;27;20493;-81
2023/07/14 04:32:21;;;;;;;2.60;1.40;;;14.90;99.90;;;;;;5036119;28;20539;-84
2023/07/14 04:34:49;;;;;;;2.57;1.60;;;15.00;99.90;;;;;;5042141;28;20497;-80
2023/07/14 04:37:15;;;;;;;3.47;1.10;;;15.00;99.90;;;;;;5041160;28;20543;-84
2023/07/14 04:39:44;;;;;;;7.67;2.10;;;14.90;99.90;;;;;;5041930;28;20980;-78
2023/07/14 04:42:11;;;;;;;1.33;1.23;;;15.00;99.90;;;;;;5049307;27;20493;-80
2023/07/14 04:44:38;;;;;;;3.20;1.90;;;15.20;99.90;;;;;;5043194;28;20526;-79
2023/07/14 04:47:06;;;;;;;2.93;0.97;;;15.30;99.90;;;;;;5043710;28;20485;-80
2023/07/14 04:49:35;;;;;;;2.57;1.80;;;15.40;99.90;;;;;;5038684;28;20497;-80
2023/07/14 04:52:02;;;;;;;2.90;1.20;;;15.40;99.90;;;;;;5039444;28;20497;-80
2023/07/14 04:54:29;;;;;;;1.27;1.17;;;15.70;99.90;;;;;;5036622;28;20470;-83
2023/07/14 04:56:56;;;;;;;2.70;1.30;;;15.70;99.90;;;;;;5043576;28;20482;-79
2023/07/14 04:59:23;;;;;;;2.30;1.60;;;15.80;99.90;;;;;;5044009;28;20466;-80
2023/07/14 05:01:50;;;;;;;1.40;1.30;;;15.90;99.90;;;;;;5039632;28;21174;-81
2023/07/14 05:04:17;;;;;;;3.73;1.97;;;16.10;99.90;;;;;;5039916;28;20622;-81
2023/07/14 05:06:45;;;;;;;1.40;1.30;;;16.30;99.90;;;;;;5041034;28;20513;-81
2023/07/14 05:09:14;;;;;;;1.40;1.10;;;16.40;99.90;;;;;;5059486;27;20493;-80
2023/07/14 05:11:41;;;;;;;2.83;1.77;;;16.70;99.90;;;;;;5042639;28;20965;-80
2023/07/14 05:14:09;;;;;;;1.83;1.40;;;16.80;99.90;;;;;;5042760;28;20450;-80
2023/07/14 05:16:36;;;;;;;3.40;1.60;;;17.10;99.90;;;;;;5042844;28;20551;-79
2023/07/14 05:19:03;;;;;;;1.20;1.10;;;17.00;99.90;;;;;;5045243;27;21061;-79
2023/07/14 05:21:30;;;;;;;1.33;0.90;;;16.90;99.90;;;;;;5047123;28;20447;-80
2023/07/14 05:23:58;;;;;;;1.20;1.10;;;17.30;99.90;;;;;;5051593;28;20463;-80
2023/07/14 05:26:25;;;;;;;1.30;1.00;;;17.50;99.90;;;;;;5067785;27;20513;-81
2023/07/14 05:28:52;;;;;;;1.53;1.20;;;17.50;99.90;;;;;;5040610;28;20468;-81
2023/07/14 05:31:19;;;;;;;1.90;1.80;;;17.70;99.90;;;;;;5043139;28;20522;-80
2023/07/14 05:33:46;;;;;;;3.27;1.57;;;17.30;99.90;;;;;;5039421;28;20888;-82
2023/07/14 05:36:13;;;;;;;3.70;2.10;;;17.20;99.90;;;;;;5043418;28;20472;-81
2023/07/14 05:38:40;;;;;;;2.20;0.80;;;17.30;99.90;;;;;;5058149;27;20470;-80
2023/07/14 05:41:09;;;;;;;1.40;1.30;;;17.60;99.90;;;;;;5035225;28;20520;-79
2023/07/14 05:43:36;;;;;;;2.53;2.03;;;17.80;99.90;;;;;;5043617;28;20936;-80
2023/07/14 05:46:03;;;;;;;2.37;1.43;;;18.00;99.90;;;;;;5048761;27;20521;-78
2023/07/14 05:48:30;;;;;;;2.43;2.13;;;18.30;99.90;;;;;;5035519;27;21061;-80
2023/07/14 05:50:58;;;;;;;2.17;1.97;;;18.50;99.90;;;;;;5056931;27;20497;-83
2023/07/14 05:53:26;;;;;;;1.50;1.33;;;18.40;99.90;;;;;;5083748;27;20462;-83
2023/07/14 05:55:55;;;;;;;2.27;1.70;;;18.50;99.90;;;;;;5053442;27;20452;-80
2023/07/14 05:58:24;;;;;;;2.03;1.87;;;18.40;99.90;;;;;;5041633;27;20474;-79
2023/07/14 06:00:54;;;;;;;1.17;1.00;;;18.50;99.90;;;;;;5067030;27;20470;-82
2023/07/14 06:03:22;;;;;;;1.50;1.40;;;18.70;99.90;;;;;;5055726;27;20489;-82
2023/07/14 06:05:50;;;;;;;3.07;1.60;;;18.80;99.90;;;;;;5053198;27;20485;-79
2023/07/14 06:08:19;;;;;;;2.67;1.50;;;18.90;99.90;;;;;;5061744;27;20513;-79
2023/07/14 06:10:46;;;;;;;4.00;2.00;;;19.00;99.90;;;;;;5046025;27;20468;-81
2023/07/14 06:13:13;;;;;;;4.23;1.40;;;19.00;99.90;;;;;;5059072;27;20489;-79
2023/07/14 06:15:46;;;;;;;1.27;1.17;;;18.90;99.90;;;;;;5053106;27;20477;-79
2023/07/14 06:18:13;;;;;;;2.60;2.13;;;18.70;99.90;;;;;;5041622;28;20462;-80
2023/07/14 06:20:40;;;;;;;4.40;1.97;;;18.80;99.90;;;;;;5051749;27;20473;-80
2023/07/14 06:23:07;;;;;;;1.90;1.30;;;19.20;99.90;;;;;;5036942;28;20468;-79
2023/07/14 06:25:34;;;;;;;1.83;1.10;;;19.30;99.90;;;;;;5042497;27;20457;-80
2023/07/14 06:28:01;;;;;;;2.00;1.20;;;19.20;99.90;;;;;;5037488;27;20787;-83
2023/07/14 06:30:28;;;;;;;3.23;1.30;;;19.40;99.90;;;;;;5046838;27;20860;-80
2023/07/14 06:32:57;;;;;;;2.97;1.00;;;19.50;99.90;;;;;;5050282;27;20460;-80
2023/07/14 06:35:24;;;;;;;1.43;1.20;;;19.50;99.90;;;;;;5046639;27;20522;-81
2023/07/14 06:37:51;;;;;;;1.70;1.37;;;19.40;99.90;;;;;;5046687;27;20468;-80
2023/07/14 06:40:18;;;;;;;2.20;1.50;;;19.60;99.90;;;;;;5035482;27;20529;-79
2023/07/14 06:42:45;;;;;;;1.90;1.70;;;19.40;99.90;;;;;;5038046;27;20947;-80
2023/07/14 06:45:12;;;;;;;5.30;1.63;;;19.60;99.90;;;;;;5039107;28;21131;-79
2023/07/14 06:47:39;;;;;;;1.30;1.20;;;19.50;99.90;;;;;;5040019;28;20521;-79
2023/07/14 06:50:10;;;;;;;1.63;1.50;;;19.60;99.90;;;;;;5054120;28;20523;-79
2023/07/14 06:52:38;;;;;;;3.90;1.67;;;19.70;99.90;;;;;;5040677;28;20460;-80
2023/07/14 06:55:06;;;;;;;4.70;2.37;;;19.90;99.90;;;;;;5050096;27;20448;-79
2023/07/14 06:57:33;;;;;;;2.53;1.67;;;20.10;99.90;;;;;;5048808;27;20549;-79
2023/07/14 07:00:00;;;;;;;4.80;1.80;;;20.00;99.90;;;;;;5049732;27;20465;-78
2023/07/14 07:02:28;;;;;;;3.73;1.90;;;20.20;99.90;;;;;;5042786;27;20561;-79
2023/07/14 07:04:55;;;;;;;4.33;2.27;;;20.10;99.90;;;;;;5040548;28;20468;-82
2023/07/14 07:07:24;;;;;;;3.00;2.00;;;20.00;99.90;;;;;;5042373;28;20558;-79
2023/07/14 07:09:55;;;;;;;2.47;2.23;;;20.50;99.90;;;;;;5042482;27;20484;-79
2023/07/14 07:12:22;;;;;;;2.10;1.90;;;20.90;99.90;;;;;;5045459;28;20460;-80
2023/07/14 07:14:49;;;;;;;3.00;2.37;;;21.10;99.90;;;;;;5068882;27;20495;-79
2023/07/14 07:17:16;;;;;;;1.80;1.70;;;20.90;99.90;;;;;;5048528;27;20498;-79
2023/07/14 07:19:43;;;;;;;3.13;2.03;;;20.90;99.90;;;;;;5069465;27;20475;-79
2023/07/14 07:22:10;;;;;;;1.80;1.53;;;21.00;99.90;;;;;;5049219;27;20968;-78
2023/07/14 07:24:39;;;;;;;2.60;2.10;;;21.00;99.90;;;;;;5049450;27;20445;-79
2023/07/14 07:27:07;;;;;;;2.73;2.53;;;21.20;99.90;;;;;;5056455;27;20489;-78
2023/07/14 07:29:34;;;;;;;1.80;1.70;;;21.20;99.90;;;;;;5042363;28;20449;-79
2023/07/14 07:32:03;;;;;;;1.87;1.77;;;21.40;99.90;;;;;;5055727;27;20546;-78
2023/07/14 07:34:30;;;;;;;5.80;2.03;;;21.40;99.90;;;;;;5059266;27;20469;-82
2023/07/14 07:36:57;;;;;;;1.70;1.60;;;21.70;99.90;;;;;;5054251;27;20457;-79
2023/07/14 07:39:24;;;;;;;2.50;2.23;;;21.90;99.90;;;;;;5059031;27;20978;-78
2023/07/14 07:41:53;;;;;;;3.23;1.70;;;22.00;99.90;;;;;;5038414;28;21246;-79
2023/07/14 07:44:21;;;;;;;3.27;1.20;;;21.90;99.90;;;;;;5043517;27;20456;-79
2023/07/14 07:46:48;;;;;;;2.70;1.40;;;22.20;99.90;;;;;;5048175;27;20477;-78
2023/07/14 07:49:15;;;;;;;1.80;1.70;;;22.30;99.90;;;;;;5041207;28;21155;-79
2023/07/14 07:51:41;;;;;;;1.10;1.00;;;22.60;99.90;;;;;;5061912;27;20540;-79
2023/07/14 07:54:08;;;;;;;1.60;1.50;;;22.80;99.90;;;;;;5042466;28;20527;-79
2023/07/14 07:56:35;;;;;;;1.63;1.43;;;22.60;98.60;;;;;;5048746;27;20549;-82
2023/07/14 07:59:05;;;;;;;1.37;1.20;;;22.80;99.00;;;;;;5043468;28;20484;-80
2023/07/14 08:01:32;;;;;;;2.53;1.40;;;22.80;98.50;;;;;;5061688;27;20984;-79
2023/07/14 08:04:00;;;;;;;1.17;1.07;;;23.10;98.70;;;;;;5042087;27;20469;-82
2023/07/14 08:06:28;;;;;;;3.60;1.00;;;23.10;97.10;;;;;;5039435;28;20520;-81
2023/07/14 08:08:55;;;;;;;1.33;1.20;;;22.80;96.00;;;;;;5043267;27;20489;-83
2023/07/14 08:11:22;;;;;;;1.50;1.23;;;23.00;97.50;;;;;;5042021;27;20546;-82
2023/07/14 08:13:49;;;;;;;0.87;0.80;;;23.20;97.20;;;;;;5056659;27;20462;-80
2023/07/14 08:16:17;;;;;;;1.57;1.30;;;23.30;95.50;;;;;;5042611;27;20470;-80
2023/07/14 08:18:44;;;;;;;1.77;1.00;;;23.30;94.50;;;;;;5036418;28;20471;-80
2023/07/14 08:21:11;;;;;;;2.40;1.00;;;23.60;96.20;;;;;;5036107;27;20868;-82
2023/07/14 08:23:40;;;;;;;1.67;1.17;;;23.90;96.20;;;;;;5046339;27;20482;-82
2023/07/14 08:26:08;;;;;;;1.10;1.00;;;24.30;93.90;;;;;;5048732;27;20478;-81
2023/07/14 08:28:35;;;;;;;3.03;1.43;;;24.20;94.40;;;;;;5046340;27;20491;-80
2023/07/14 08:31:05;;;;;;;0.60;0.60;;;24.20;95.20;;;;;;5041013;28;20468;-80
2023/07/14 08:33:33;;;;;;;1.67;1.57;;;24.90;92.80;;;;;;5057488;27;20952;-80
2023/07/14 08:36:03;;;;;;;0.93;0.80;;;25.00;92.20;;;;;;5054434;27;20944;-82
2023/07/14 08:38:31;;;;;;;2.40;1.00;;;25.10;88.20;;;;;;5043552;28;20505;-80
2023/07/14 08:41:09;;;;;;;1.63;1.00;;;25.10;87.60;;;;;;5057989;27;20531;-79
2023/07/14 08:43:48;;;;;;;2.63;0.90;;;24.60;85.50;;;;;;5042162;27;20568;-82
2023/07/14 08:46:22;;;;;;;1.40;1.20;;;24.50;88.00;;;;;;5056569;27;20456;-80
2023/07/14 08:48:57;;;;;;;2.50;0.60;;;24.80;83.80;;;;;;5042089;27;20491;-80
2023/07/14 08:51:39;;;;;;;6.13;0.90;;;24.70;83.40;;;;;;5045538;27;20480;-82
2023/07/14 08:54:10;;;;;;;0.80;0.70;;;25.20;86.00;;;;;;5038934;27;20561;-79
2023/07/14 08:56:39;;;;;;;1.17;0.70;;;25.10;81.50;;;;;;5041601;28;20473;-79
2023/07/14 08:59:10;;;;;;;0.70;0.70;;;25.10;78.30;;;;;;5055786;27;20867;-79
2023/07/14 09:01:41;;;;;;;0.80;0.60;;;25.00;76.50;;;;;;5059945;27;20481;-82
2023/07/14 09:04:16;;;;;;;3.17;0.90;;;24.70;75.00;;;;;;5048247;27;20557;-82
2023/07/14 09:06:43;;;;;;;1.10;1.00;;;25.10;73.50;;;;;;5041811;27;20476;-79
2023/07/14 09:09:16;;;;;;;1.00;0.70;;;25.30;73.90;;;;;;5049299;27;20530;-80
2023/07/14 09:11:52;;;;;;;1.37;0.70;;;25.50;70.90;;;;;;5042096;27;20508;-79
2023/07/14 09:14:39;;;;;;;0.80;0.70;;;25.90;68.90;;;;;;5040326;28;20452;-81
2023/07/14 09:17:16;;;;;;;1.77;1.67;;;26.00;63.20;;;;;;5038363;27;20472;-79
2023/07/14 09:20:12;;;;;;;1.87;1.20;;;26.20;63.20;;;;;;5041446;27;20492;-82
2023/07/14 09:22:47;;;;;;;1.20;0.80;;;26.20;66.40;;;;;;5051639;27;20497;-80
2023/07/14 09:25:22;;;;;;;1.90;0.90;;;26.20;64.10;;;;;;5056075;27;20717;-82
2023/07/14 09:27:51;;;;;;;0.80;0.70;;;26.50;59.30;;;;;;5054715;27;20506;-82
2023/07/14 09:30:23;;;;;;;0.70;0.70;;;26.40;58.00;;;;;;5054325;27;20447;-80
2023/07/14 09:32:55;;;;;;;1.10;0.77;;;26.20;56.00;;;;;;5041498;27;20472;-80
2023/07/14 09:35:25;;;;;;;1.00;0.60;;;26.20;55.50;;;;;;5041655;28;20458;-80
2023/07/14 09:37:57;;;;;;;1.27;0.73;;;26.10;55.60;;;;;;5051152;27;20541;-80
2023/07/14 09:40:28;;;;;;;0.90;0.53;;;26.50;56.00;;;;;;5051809;27;20471;-82
2023/07/14 09:42:56;;;;;;;1.43;0.70;;;26.80;55.20;;;;;;5059487;27;20540;-80
2023/07/14 09:45:25;;;;;;;1.70;0.70;;;26.90;56.80;;;;;;5058039;27;20471;-80
2023/07/14 09:47:57;;;;;;;1.30;1.20;;;27.10;55.50;;;;;;5043858;27;21094;-81
2023/07/14 09:50:27;;;;;;;1.10;0.90;;;27.30;51.40;;;;;;5057279;27;20469;-82
2023/07/14 09:52:56;;;;;;;1.30;0.80;;;27.50;51.80;;;;;;5058697;27;20482;-80
2023/07/14 09:55:24;;;;;;;1.27;0.57;;;27.60;50.80;;;;;;5035974;28;20467;-80
2023/07/14 09:57:56;;;;;;;1.90;1.33;;;27.80;51.10;;;;;;5056032;27;20539;-80
2023/07/14 10:00:25;;;;;;;1.37;0.60;;;27.60;50.90;;;;;;5049169;27;20494;-79
2023/07/14 10:03:08;;;;;;;1.03;0.93;;;27.10;50.60;;;;;;5047514;27;20466;-80
2023/07/14 10:05:51;;;;;;;0.60;0.57;;;27.20;52.10;;;;;;5040129;27;20525;-80
2023/07/14 10:08:27;;;;;;;1.70;1.20;;;27.60;52.90;;;;;;5049905;27;20483;-80
2023/07/14 10:10:57;;;;;;;2.80;1.80;;;27.50;54.00;;;;;;5052295;27;20469;-79
2023/07/14 10:13:27;;;;;;;0.77;0.63;;;27.70;51.70;;;;;;5038953;28;20450;-80
2023/07/14 10:15:58;;;;;;;3.53;0.60;;;27.80;48.60;;;;;;5040472;27;20556;-80
2023/07/14 10:18:27;;;;;;;1.77;0.60;;;27.90;47.70;;;;;;5044182;27;20495;-81
2023/07/14 10:21:07;;;;;;;1.20;0.67;;;27.50;47.80;;;;;;5059525;27;20974;-80
2023/07/14 10:23:35;;;;;;;0.63;0.60;;;27.80;45.70;;;;;;5047682;27;20464;-80
2023/07/14 10:26:07;;;;;;;0.63;0.60;;;28.00;49.80;;;;;;5058993;27;20511;-81
2023/07/14 10:28:35;;;;;;;0.80;0.67;;;28.00;43.50;;;;;;5038935;27;20494;-79
2023/07/14 10:31:27;;;;;;;0.60;0.50;;;28.20;45.00;;;;;;5046548;27;20451;-80
2023/07/14 10:34:17;;;;;;;0.63;0.60;;;27.70;45.30;;;;;;5036291;28;20468;-80
2023/07/14 10:36:46;;;;;;;1.87;1.77;;;27.80;46.10;;;;;;5062725;27;20494;-80
2023/07/14 10:39:23;;;;;;;1.03;0.80;;;27.60;46.30;;;;;;5054433;27;20559;-81
2023/07/14 10:41:50;;;;;;;1.83;0.70;;;27.60;45.10;;;;;;5039859;28;20495;-80
2023/07/14 10:44:23;;;;;;;0.80;0.80;;;28.00;49.10;;;;;;5061139;27;20496;-83
2023/07/14 10:46:54;;;;;;;1.00;0.70;;;28.10;45.40;;;;;;5045443;27;20571;-80
2023/07/14 10:49:26;;;;;;;7.13;1.43;;;28.20;48.00;;;;;;5043839;27;20563;-80
2023/07/14 10:51:59;;;;;;;1.00;0.80;;;28.30;44.30;;;;;;5049424;27;20520;-82
2023/07/14 10:54:43;;;;;;;0.60;0.60;;;27.60;44.50;;;;;;5042115;28;20439;-80
2023/07/14 10:57:18;;;;;;;0.73;0.70;;;27.80;46.10;;;;;;5053262;27;20507;-80
2023/07/14 10:59:51;;;;;;;5.30;1.17;;;28.10;46.10;;;;;;5043653;27;20491;-80
2023/07/14 11:02:23;;;;;;;6.40;1.10;;;28.40;43.50;;;;;;5045724;27;20537;-80
2023/07/14 11:04:55;;;;;;;0.77;0.77;;;28.20;42.50;;;;;;5043374;27;20476;-80
2023/07/14 11:07:29;;;;;;;0.80;0.70;;;28.60;46.00;;;;;;5052566;28;20484;-79
2023/07/14 11:09:56;;;;;;;0.87;0.60;;;29.00;46.00;;;;;;5052022;27;20583;-79
2023/07/14 11:12:30;;;;;;;0.90;0.73;;;29.10;42.10;;;;;;5046676;27;20489;-79
2023/07/14 11:15:15;;;;;;;3.33;0.60;;;28.80;40.80;;;;;;5040831;28;20445;-80
2023/07/14 11:17:47;;;;;;;1.97;0.70;;;28.40;40.40;;;;;;5047522;27;20939;-79
2023/07/14 11:20:19;;;;;;;0.70;0.60;;;28.60;42.40;;;;;;5038065;28;20499;-79
2023/07/14 11:23:01;;;;;;;1.23;0.90;;;28.70;40.50;;;;;;5045112;27;20503;-79
2023/07/14 11:25:38;;;;;;;0.70;0.70;;;28.70;42.40;;;;;;5043173;28;20469;-81
2023/07/14 11:28:18;;;;;;;1.23;0.70;;;28.60;40.90;;;;;;5037540;28;20480;-79
2023/07/14 11:30:51;;;;;;;1.87;0.63;;;28.30;38.30;;;;;;5043318;27;20514;-81
2023/07/14 11:33:24;;;;;;;0.70;0.70;;;28.10;39.10;;;;;;5038362;28;20880;-80
2023/07/14 11:35:57;;;;;;;1.13;0.80;;;28.30;40.80;;;;;;5039780;28;20525;-80
2023/07/14 11:38:37;;;;;;;1.13;0.70;;;28.80;42.80;;;;;;5036422;27;20983;-80
2023/07/14 11:41:05;;;;;;;1.10;0.67;;;29.00;42.70;;;;;;5040377;27;20491;-80
2023/07/14 11:43:33;;;;;;;0.70;0.70;;;29.20;37.60;;;;;;5039620;27;20465;-80
2023/07/14 11:46:03;;;;;;;1.90;0.90;;;29.00;36.30;;;;;;5049058;27;21182;-82
2023/07/14 11:48:38;;;;;;;0.80;0.63;;;28.90;40.00;;;;;;5042280;28;20487;-80
2023/07/14 11:51:08;;;;;;;0.60;0.50;;;28.40;37.30;;;;;;5042766;27;20575;-80
2023/07/14 11:53:40;;;;;;;0.87;0.70;;;28.80;38.40;;;;;;5047563;27;20533;-80
2023/07/14 11:56:24;;;;;;;0.83;0.60;;;28.90;39.20;;;;;;5047290;27;20569;-80
2023/07/14 11:59:13;;;;;;;1.67;0.80;;;28.80;37.10;;;;;;5043619;28;20525;-80
2023/07/14 12:01:46;;;;;;;2.80;0.83;;;28.20;36.10;;;;;;5048307;27;20469;-82
2023/07/14 12:04:30;;;;;;;1.30;0.90;;;28.60;38.50;;;;;;5056195;27;20456;-80
2023/07/14 12:07:16;;;;;;;1.20;1.10;;;28.40;35.70;;;;;;5047235;27;20512;-81
2023/07/14 12:10:12;;;;;;;0.60;0.60;;;28.40;37.00;;;;;;5039627;28;21035;-80
2023/07/14 12:12:40;;;;;;;1.20;0.60;;;28.60;36.50;;;;;;5041795;27;20538;-82
2023/07/14 12:15:41;;;;;;;2.50;0.60;;;28.80;36.70;;;;;;5041312;27;20488;-79
2023/07/14 12:18:28;;;;;;;0.80;0.70;;;28.30;34.50;;;;;;5039691;28;20812;-79
2023/07/14 12:21:32;;;;;;;1.37;0.83;;;29.00;39.30;;;;;;5051754;27;20884;-79
2023/07/14 12:24:06;;;;;;;5.93;0.50;;;29.30;37.70;;;;;;5040414;28;20959;-81
2023/07/14 12:26:37;;;;;;;2.33;0.80;;;29.50;34.10;;;;;;5043271;27;20472;-81
2023/07/14 12:29:13;;;;;;;0.87;0.70;;;29.20;32.70;;;;;;5058190;27;21058;-80
2023/07/14 12:31:41;;;;;;;1.20;0.83;;;29.00;35.70;;;;;;5040530;28;20903;-79
2023/07/14 12:34:16;;;;;;;1.47;0.60;;;29.10;36.50;;;;;;5037932;28;20524;-80
2023/07/14 12:36:43;;;;;;;0.83;0.60;;;29.20;37.70;;;;;;5053343;27;20460;-79
2023/07/14 12:39:10;;;;;;;2.17;0.70;;;28.80;34.70;;;;;;5045607;27;20468;-81
2023/07/14 12:41:43;;;;;;;0.80;0.80;;;28.90;36.30;;;;;;5042804;27;20567;-79
2023/07/14 12:44:23;;;;;;;1.10;0.70;;;28.90;35.60;;;;;;5054778;27;20468;-80
2023/07/14 12:46:51;;;;;;;0.57;0.57;;;29.00;35.20;;;;;;5035461;27;20484;-80
2023/07/14 12:49:25;;;;;;;1.10;0.70;;;29.00;35.60;;;;;;5041568;27;20507;-79
2023/07/14 12:51:52;;;;;;;0.63;0.63;;;29.20;36.30;;;;;;5041204;27;20985;-82
2023/07/14 12:54:25;;;;;;;0.70;0.60;;;29.40;34.20;;;;;;5044134;28;20993;-78
2023/07/14 12:56:55;;;;;;;2.07;0.70;;;29.40;33.20;;;;;;5045656;28;20449;-79
2023/07/14 12:59:24;;;;;;;2.40;0.83;;;29.20;34.40;;;;;;5042123;27;20552;-79
2023/07/14 13:01:52;;;;;;;1.33;0.70;;;29.60;34.60;;;;;;5042296;27;20464;-83
2023/07/14 13:04:21;;;;;;;1.40;0.70;;;30.00;34.70;;;;;;5043652;28;20457;-80